sensor_id;sensor_type;location;lat;lon;timestamp;temperature;humidity
41557;DHT22;27720;51.992;5.890;2023-04-24T00:00:19;12.10;99.90
41557;DHT22;27720;51.992;5.890;2023-04-24T00:02:45;12.10;99.90
41557;DHT22;27720;51.992;5.890;2023-04-24T00:05:14;12.10;99.90
41557;DHT22;27720;51.992;5.890;2023-04-24T00:07:44;12.10;99.90
41557;DHT22;27720;51.992;5.890;2023-04-24T00:10:11;12.10;99.90
41557;DHT22;27720;51.992;5.890;2023-04-24T00:12:37;12.00;99.90
41557;DHT22;27720;51.992;5.890;2023-04-24T00:15:04;12.00;99.90
41557;DHT22;27720;51.992;5.890;2023-04-24T00:17:30;12.10;99.90
41557;DHT22;27720;51.992;5.890;2023-04-24T00:19:56;12.10;99.90
41557;DHT22;27720;51.992;5.890;2023-04-24T00:22:27;12.10;99.90
41557;DHT22;27720;51.992;5.890;2023-04-24T00:24:53;12.00;99.90
41557;DHT22;27720;51.992;5.890;2023-04-24T00:27:18;12.10;99.90
41557;DHT22;27720;51.992;5.890;2023-04-24T00:29:44;12.00;99.90
41557;DHT22;27720;51.992;5.890;2023-04-24T00:32:10;12.10;99.90
41557;DHT22;27720;51.992;5.890;2023-04-24T00:34:36;12.10;99.90
41557;DHT22;27720;51.992;5.890;2023-04-24T00:37:02;12.00;99.90
41557;DHT22;27720;51.992;5.890;2023-04-24T00:39:27;12.00;99.90
41557;DHT22;27720;51.992;5.890;2023-04-24T00:41:53;11.90;99.90
41557;DHT22;27720;51.992;5.890;2023-04-24T00:44:19;11.90;99.90
41557;DHT22;27720;51.992;5.890;2023-04-24T00:46:46;11.90;99.90
41557;DHT22;27720;51.992;5.890;2023-04-24T00:49:13;12.00;99.90
41557;DHT22;27720;51.992;5.890;2023-04-24T00:51:39;12.00;99.90
41557;DHT22;27720;51.992;5.890;2023-04-24T00:54:06;12.00;99.90
41557;DHT22;27720;51.992;5.890;2023-04-24T00:56:32;11.90;99.90
41557;DHT22;27720;51.992;5.890;2023-04-24T00:58:58;12.00;99.90
41557;DHT22;27720;51.992;5.890;2023-04-24T01:01:24;11.90;99.90
41557;DHT22;27720;51.992;5.890;2023-04-24T01:03:51;11.90;99.90
41557;DHT22;27720;51.992;5.890;2023-04-24T01:06:19;11.90;99.90
41557;DHT22;27720;51.992;5.890;2023-04-24T01:08:46;11.90;99.90
41557;DHT22;27720;51.992;5.890;2023-04-24T01:11:13;11.90;99.90
41557;DHT22;27720;51.992;5.890;2023-04-24T01:13:39;11.90;99.90
41557;DHT22;27720;51.992;5.890;2023-04-24T01:16:05;12.00;99.90
41557;DHT22;27720;51.992;5.890;2023-04-24T01:18:33;12.00;99.90
41557;DHT22;27720;51.992;5.890;2023-04-24T01:20:59;12.00;99.90
41557;DHT22;27720;51.992;5.890;2023-04-24T01:23:30;12.00;99.90
41557;DHT22;27720;51.992;5.890;2023-04-24T01:25:56;11.90;99.90
41557;DHT22;27720;51.992;5.890;2023-04-24T01:28:22;11.90;99.90
41557;DHT22;27720;51.992;5.890;2023-04-24T01:30:48;11.90;99.90
41557;DHT22;27720;51.992;5.890;2023-04-24T01:33:14;11.90;99.90
41557;DHT22;27720;51.992;5.890;2023-04-24T01:35:40;11.90;99.90
41557;DHT22;27720;51.992;5.890;2023-04-24T01:38:06;11.90;99.90
41557;DHT22;27720;51.992;5.890;2023-04-24T01:40:32;11.80;99.90
41557;DHT22;27720;51.992;5.890;2023-04-24T01:42:58;11.80;99.90
41557;DHT22;27720;51.992;5.890;2023-04-24T01:45:24;11.80;99.90
41557;DHT22;27720;51.992;5.890;2023-04-24T01:47:50;11.80;99.90
41557;DHT22;27720;51.992;5.890;2023-04-24T01:50:17;11.80;99.90
41557;DHT22;27720;51.992;5.890;2023-04-24T01:52:43;11.70;99.90
41557;DHT22;27720;51.992;5.890;2023-04-24T01:55:09;11.70;99.90
41557;DHT22;27720;51.992;5.890;2023-04-24T01:57:35;11.70;99.90
41557;DHT22;27720;51.992;5.890;2023-04-24T02:00:02;11.70;99.90
41557;DHT22;27720;51.992;5.890;2023-04-24T02:02:42;11.70;99.90
41557;DHT22;27720;51.992;5.890;2023-04-24T02:05:08;11.80;99.90
41557;DHT22;27720;51.992;5.890;2023-04-24T02:07:36;11.80;99.90
41557;DHT22;27720;51.992;5.890;2023-04-24T02:10:02;11.80;99.90
41557;DHT22;27720;51.992;5.890;2023-04-24T02:12:29;11.80;99.90
41557;DHT22;27720;51.992;5.890;2023-04-24T02:14:55;11.80;99.90
41557;DHT22;27720;51.992;5.890;2023-04-24T02:17:21;11.80;99.90
41557;DHT22;27720;51.992;5.890;2023-04-24T02:19:47;11.70;99.90
41557;DHT22;27720;51.992;5.890;2023-04-24T02:22:12;11.70;99.90
41557;DHT22;27720;51.992;5.890;2023-04-24T02:24:39;11.80;99.90
41557;DHT22;27720;51.992;5.890;2023-04-24T02:27:06;11.80;99.90
41557;DHT22;27720;51.992;5.890;2023-04-24T02:29:32;11.80;99.90
41557;DHT22;27720;51.992;5.890;2023-04-24T02:31:58;11.80;99.90
41557;DHT22;27720;51.992;5.890;2023-04-24T02:34:23;11.80;99.90
41557;DHT22;27720;51.992;5.890;2023-04-24T02:36:50;11.70;99.90
41557;DHT22;27720;51.992;5.890;2023-04-24T02:39:16;11.70;99.90
41557;DHT22;27720;51.992;5.890;2023-04-24T02:41:43;11.70;99.90
41557;DHT22;27720;51.992;5.890;2023-04-24T02:44:09;11.60;99.90
41557;DHT22;27720;51.992;5.890;2023-04-24T02:46:35;11.60;99.90
41557;DHT22;27720;51.992;5.890;2023-04-24T02:49:01;11.60;99.90
41557;DHT22;27720;51.992;5.890;2023-04-24T02:51:29;11.50;99.90
41557;DHT22;27720;51.992;5.890;2023-04-24T02:53:55;11.40;99.90
41557;DHT22;27720;51.992;5.890;2023-04-24T02:56:21;11.40;99.90
41557;DHT22;27720;51.992;5.890;2023-04-24T02:58:50;11.40;99.90
41557;DHT22;27720;51.992;5.890;2023-04-24T03:01:15;11.50;99.90
41557;DHT22;27720;51.992;5.890;2023-04-24T03:03:41;11.50;99.90
41557;DHT22;27720;51.992;5.890;2023-04-24T03:06:07;11.40;99.90
41557;DHT22;27720;51.992;5.890;2023-04-24T03:08:33;11.50;99.90
41557;DHT22;27720;51.992;5.890;2023-04-24T03:10:59;11.50;99.90
41557;DHT22;27720;51.992;5.890;2023-04-24T03:13:25;11.50;99.90
41557;DHT22;27720;51.992;5.890;2023-04-24T03:15:51;11.40;99.90
41557;DHT22;27720;51.992;5.890;2023-04-24T03:18:17;11.50;99.90
41557;DHT22;27720;51.992;5.890;2023-04-24T03:20:45;11.50;99.90
41557;DHT22;27720;51.992;5.890;2023-04-24T03:23:12;11.50;99.90
41557;DHT22;27720;51.992;5.890;2023-04-24T03:25:38;11.60;99.90
41557;DHT22;27720;51.992;5.890;2023-04-24T03:28:04;11.60;99.90
41557;DHT22;27720;51.992;5.890;2023-04-24T03:30:39;11.60;99.90
41557;DHT22;27720;51.992;5.890;2023-04-24T03:33:05;11.60;99.90
41557;DHT22;27720;51.992;5.890;2023-04-24T03:35:35;11.60;99.90
41557;DHT22;27720;51.992;5.890;2023-04-24T03:38:04;11.60;99.90
41557;DHT22;27720;51.992;5.890;2023-04-24T03:40:48;11.60;99.90
41557;DHT22;27720;51.992;5.890;2023-04-24T03:43:35;11.60;99.90
41557;DHT22;27720;51.992;5.890;2023-04-24T03:46:01;11.50;99.90
41557;DHT22;27720;51.992;5.890;2023-04-24T03:48:28;11.40;99.90
41557;DHT22;27720;51.992;5.890;2023-04-24T03:50:54;11.40;99.90
41557;DHT22;27720;51.992;5.890;2023-04-24T03:53:20;11.40;99.90
41557;DHT22;27720;51.992;5.890;2023-04-24T03:55:46;11.30;99.90
41557;DHT22;27720;51.992;5.890;2023-04-24T03:58:16;11.40;99.90
41557;DHT22;27720;51.992;5.890;2023-04-24T04:00:43;11.30;99.90
41557;DHT22;27720;51.992;5.890;2023-04-24T04:03:33;11.30;99.90
41557;DHT22;27720;51.992;5.890;2023-04-24T04:05:59;11.30;99.90
41557;DHT22;27720;51.992;5.890;2023-04-24T04:08:25;11.30;99.90
41557;DHT22;27720;51.992;5.890;2023-04-24T04:10:52;11.30;99.90
41557;DHT22;27720;51.992;5.890;2023-04-24T04:13:17;11.20;99.90
41557;DHT22;27720;51.992;5.890;2023-04-24T04:15:43;11.30;99.90
41557;DHT22;27720;51.992;5.890;2023-04-24T04:18:09;11.30;99.90
41557;DHT22;27720;51.992;5.890;2023-04-24T04:20:35;11.30;99.90
41557;DHT22;27720;51.992;5.890;2023-04-24T04:23:04;11.30;99.90
41557;DHT22;27720;51.992;5.890;2023-04-24T04:25:47;11.30;99.90
41557;DHT22;27720;51.992;5.890;2023-04-24T04:28:13;11.20;99.90
41557;DHT22;27720;51.992;5.890;2023-04-24T04:30:39;11.20;99.90
41557;DHT22;27720;51.992;5.890;2023-04-24T04:33:05;11.20;99.90
41557;DHT22;27720;51.992;5.890;2023-04-24T04:35:32;11.20;99.90
41557;DHT22;27720;51.992;5.890;2023-04-24T04:37:58;11.20;99.90
41557;DHT22;27720;51.992;5.890;2023-04-24T04:40:44;11.20;99.90
41557;DHT22;27720;51.992;5.890;2023-04-24T04:43:11;11.20;99.90
41557;DHT22;27720;51.992;5.890;2023-04-24T04:45:44;11.10;99.90
41557;DHT22;27720;51.992;5.890;2023-04-24T04:48:30;11.20;99.90
41557;DHT22;27720;51.992;5.890;2023-04-24T04:50:59;11.10;99.90
41557;DHT22;27720;51.992;5.890;2023-04-24T04:53:26;11.10;99.90
41557;DHT22;27720;51.992;5.890;2023-04-24T04:55:52;11.10;99.90
41557;DHT22;27720;51.992;5.890;2023-04-24T04:58:19;11.10;99.90
41557;DHT22;27720;51.992;5.890;2023-04-24T05:00:47;11.10;99.90
41557;DHT22;27720;51.992;5.890;2023-04-24T05:03:46;11.10;99.90
41557;DHT22;27720;51.992;5.890;2023-04-24T05:06:15;11.00;99.90
41557;DHT22;27720;51.992;5.890;2023-04-24T05:08:42;11.00;99.90
41557;DHT22;27720;51.992;5.890;2023-04-24T05:11:14;11.00;99.90
41557;DHT22;27720;51.992;5.890;2023-04-24T05:13:41;11.00;99.90
41557;DHT22;27720;51.992;5.890;2023-04-24T05:16:15;11.00;99.90
41557;DHT22;27720;51.992;5.890;2023-04-24T05:18:41;10.90;99.90
41557;DHT22;27720;51.992;5.890;2023-04-24T05:21:09;10.90;99.90
41557;DHT22;27720;51.992;5.890;2023-04-24T05:23:37;11.00;99.90
41557;DHT22;27720;51.992;5.890;2023-04-24T05:26:03;11.00;99.90
41557;DHT22;27720;51.992;5.890;2023-04-24T05:28:31;11.00;99.90
41557;DHT22;27720;51.992;5.890;2023-04-24T05:31:09;11.00;99.90
41557;DHT22;27720;51.992;5.890;2023-04-24T05:33:35;11.00;99.90
41557;DHT22;27720;51.992;5.890;2023-04-24T05:36:04;11.00;99.90
41557;DHT22;27720;51.992;5.890;2023-04-24T05:38:31;11.10;99.90
41557;DHT22;27720;51.992;5.890;2023-04-24T05:40:57;11.10;99.90
41557;DHT22;27720;51.992;5.890;2023-04-24T05:43:25;11.10;99.90
41557;DHT22;27720;51.992;5.890;2023-04-24T05:45:51;11.10;99.90
41557;DHT22;27720;51.992;5.890;2023-04-24T05:48:22;11.10;99.90
41557;DHT22;27720;51.992;5.890;2023-04-24T05:50:48;11.10;99.90
41557;DHT22;27720;51.992;5.890;2023-04-24T05:53:24;11.20;99.90
41557;DHT22;27720;51.992;5.890;2023-04-24T05:55:50;11.10;99.90
41557;DHT22;27720;51.992;5.890;2023-04-24T05:58:16;11.10;99.90
41557;DHT22;27720;51.992;5.890;2023-04-24T06:00:46;11.20;99.90
41557;DHT22;27720;51.992;5.890;2023-04-24T06:03:15;11.20;99.90
41557;DHT22;27720;51.992;5.890;2023-04-24T06:05:41;11.30;99.90
41557;DHT22;27720;51.992;5.890;2023-04-24T06:08:07;11.30;99.90
41557;DHT22;27720;51.992;5.890;2023-04-24T06:10:36;11.30;99.90
41557;DHT22;27720;51.992;5.890;2023-04-24T06:13:05;11.30;99.90
41557;DHT22;27720;51.992;5.890;2023-04-24T06:15:33;11.40;99.90
41557;DHT22;27720;51.992;5.890;2023-04-24T06:18:05;11.30;99.90
41557;DHT22;27720;51.992;5.890;2023-04-24T06:20:31;11.30;99.90
41557;DHT22;27720;51.992;5.890;2023-04-24T06:22:56;11.40;99.90
41557;DHT22;27720;51.992;5.890;2023-04-24T06:25:25;11.40;99.90
41557;DHT22;27720;51.992;5.890;2023-04-24T06:27:52;11.40;99.90
41557;DHT22;27720;51.992;5.890;2023-04-24T06:30:18;11.40;99.90
41557;DHT22;27720;51.992;5.890;2023-04-24T06:32:44;11.50;99.90
41557;DHT22;27720;51.992;5.890;2023-04-24T06:35:09;11.50;99.90
41557;DHT22;27720;51.992;5.890;2023-04-24T06:37:38;11.50;99.90
41557;DHT22;27720;51.992;5.890;2023-04-24T06:40:05;11.50;99.90
41557;DHT22;27720;51.992;5.890;2023-04-24T06:42:31;11.50;99.90
41557;DHT22;27720;51.992;5.890;2023-04-24T06:44:57;11.50;99.90
41557;DHT22;27720;51.992;5.890;2023-04-24T06:47:26;11.50;99.90
41557;DHT22;27720;51.992;5.890;2023-04-24T06:49:54;11.60;99.90
41557;DHT22;27720;51.992;5.890;2023-04-24T06:52:20;11.60;99.90
41557;DHT22;27720;51.992;5.890;2023-04-24T06:54:46;11.60;99.90
41557;DHT22;27720;51.992;5.890;2023-04-24T06:57:12;11.60;99.90
41557;DHT22;27720;51.992;5.890;2023-04-24T06:59:38;11.60;99.90
41557;DHT22;27720;51.992;5.890;2023-04-24T07:02:04;11.60;99.90
41557;DHT22;27720;51.992;5.890;2023-04-24T07:04:30;11.70;99.90
41557;DHT22;27720;51.992;5.890;2023-04-24T07:06:56;11.60;99.90
41557;DHT22;27720;51.992;5.890;2023-04-24T07:09:25;11.60;99.90
41557;DHT22;27720;51.992;5.890;2023-04-24T07:11:51;11.60;99.90
41557;DHT22;27720;51.992;5.890;2023-04-24T07:14:18;11.60;99.90
41557;DHT22;27720;51.992;5.890;2023-04-24T07:16:44;11.50;99.90
41557;DHT22;27720;51.992;5.890;2023-04-24T07:19:11;11.40;99.90
41557;DHT22;27720;51.992;5.890;2023-04-24T07:21:36;11.40;99.90
41557;DHT22;27720;51.992;5.890;2023-04-24T07:24:02;11.40;99.90
41557;DHT22;27720;51.992;5.890;2023-04-24T07:26:29;11.40;99.90
41557;DHT22;27720;51.992;5.890;2023-04-24T07:28:55;11.30;99.90
41557;DHT22;27720;51.992;5.890;2023-04-24T07:31:31;11.30;99.90
41557;DHT22;27720;51.992;5.890;2023-04-24T07:33:57;11.30;99.90
41557;DHT22;27720;51.992;5.890;2023-04-24T07:36:26;11.30;99.90
41557;DHT22;27720;51.992;5.890;2023-04-24T07:38:54;11.20;99.90
41557;DHT22;27720;51.992;5.890;2023-04-24T07:41:20;11.10;99.90
41557;DHT22;27720;51.992;5.890;2023-04-24T07:43:46;11.20;99.90
41557;DHT22;27720;51.992;5.890;2023-04-24T07:46:11;11.10;99.90
41557;DHT22;27720;51.992;5.890;2023-04-24T07:48:37;11.00;99.90
41557;DHT22;27720;51.992;5.890;2023-04-24T07:51:03;10.90;99.90
41557;DHT22;27720;51.992;5.890;2023-04-24T07:53:29;10.80;99.90
41557;DHT22;27720;51.992;5.890;2023-04-24T07:55:56;10.70;99.90
41557;DHT22;27720;51.992;5.890;2023-04-24T07:58:22;10.70;99.90
41557;DHT22;27720;51.992;5.890;2023-04-24T08:00:53;10.70;99.90
41557;DHT22;27720;51.992;5.890;2023-04-24T08:03:19;10.70;99.90
41557;DHT22;27720;51.992;5.890;2023-04-24T08:05:45;10.70;99.90
41557;DHT22;27720;51.992;5.890;2023-04-24T08:08:11;10.60;99.90
41557;DHT22;27720;51.992;5.890;2023-04-24T08:10:37;10.60;99.90
41557;DHT22;27720;51.992;5.890;2023-04-24T08:13:02;10.70;99.90
41557;DHT22;27720;51.992;5.890;2023-04-24T08:15:28;10.60;99.90
41557;DHT22;27720;51.992;5.890;2023-04-24T08:17:54;10.60;99.90
41557;DHT22;27720;51.992;5.890;2023-04-24T08:20:20;10.60;99.90
41557;DHT22;27720;51.992;5.890;2023-04-24T08:22:46;10.60;99.90
41557;DHT22;27720;51.992;5.890;2023-04-24T08:25:15;10.50;99.90
41557;DHT22;27720;51.992;5.890;2023-04-24T08:27:40;10.50;99.90
41557;DHT22;27720;51.992;5.890;2023-04-24T08:30:07;10.50;99.90
41557;DHT22;27720;51.992;5.890;2023-04-24T08:32:33;10.40;99.90
41557;DHT22;27720;51.992;5.890;2023-04-24T08:34:59;10.40;99.90
41557;DHT22;27720;51.992;5.890;2023-04-24T08:37:26;10.40;99.90
41557;DHT22;27720;51.992;5.890;2023-04-24T08:39:52;10.40;99.90
41557;DHT22;27720;51.992;5.890;2023-04-24T08:42:18;10.30;99.90
41557;DHT22;27720;51.992;5.890;2023-04-24T08:44:45;10.40;99.90
41557;DHT22;27720;51.992;5.890;2023-04-24T08:47:11;10.40;99.90
41557;DHT22;27720;51.992;5.890;2023-04-24T08:49:38;10.50;99.90
41557;DHT22;27720;51.992;5.890;2023-04-24T08:52:07;10.50;99.90
41557;DHT22;27720;51.992;5.890;2023-04-24T08:54:34;10.50;99.90
41557;DHT22;27720;51.992;5.890;2023-04-24T08:57:02;10.50;99.90
41557;DHT22;27720;51.992;5.890;2023-04-24T08:59:30;10.50;99.90
41557;DHT22;27720;51.992;5.890;2023-04-24T09:01:57;10.50;99.90
41557;DHT22;27720;51.992;5.890;2023-04-24T09:04:23;10.50;99.90
41557;DHT22;27720;51.992;5.890;2023-04-24T09:06:58;10.40;99.90
41557;DHT22;27720;51.992;5.890;2023-04-24T09:09:24;10.50;99.90
41557;DHT22;27720;51.992;5.890;2023-04-24T09:11:51;10.50;99.90
41557;DHT22;27720;51.992;5.890;2023-04-24T09:14:19;10.40;99.90
41557;DHT22;27720;51.992;5.890;2023-04-24T09:16:46;10.40;99.90
41557;DHT22;27720;51.992;5.890;2023-04-24T09:19:12;10.40;99.90
41557;DHT22;27720;51.992;5.890;2023-04-24T09:21:38;10.30;99.90
41557;DHT22;27720;51.992;5.890;2023-04-24T09:24:06;10.40;99.90
41557;DHT22;27720;51.992;5.890;2023-04-24T09:26:35;10.40;99.90
41557;DHT22;27720;51.992;5.890;2023-04-24T09:29:03;10.50;99.90
41557;DHT22;27720;51.992;5.890;2023-04-24T09:31:29;10.50;99.90
41557;DHT22;27720;51.992;5.890;2023-04-24T09:34:00;10.50;99.90
41557;DHT22;27720;51.992;5.890;2023-04-24T09:36:28;10.50;99.90
41557;DHT22;27720;51.992;5.890;2023-04-24T09:38:58;10.50;99.90
41557;DHT22;27720;51.992;5.890;2023-04-24T09:41:24;10.50;99.90
41557;DHT22;27720;51.992;5.890;2023-04-24T09:43:50;10.50;99.90
41557;DHT22;27720;51.992;5.890;2023-04-24T09:46:18;10.50;99.90
41557;DHT22;27720;51.992;5.890;2023-04-24T09:48:44;10.50;99.90
41557;DHT22;27720;51.992;5.890;2023-04-24T09:51:09;10.50;99.90
41557;DHT22;27720;51.992;5.890;2023-04-24T09:53:38;10.50;99.90
41557;DHT22;27720;51.992;5.890;2023-04-24T09:56:12;10.60;99.90
41557;DHT22;27720;51.992;5.890;2023-04-24T09:58:38;10.60;99.90
41557;DHT22;27720;51.992;5.890;2023-04-24T10:01:05;10.60;99.90
41557;DHT22;27720;51.992;5.890;2023-04-24T10:03:34;10.70;99.90
41557;DHT22;27720;51.992;5.890;2023-04-24T10:06:03;10.70;99.90
41557;DHT22;27720;51.992;5.890;2023-04-24T10:08:35;10.80;99.90
41557;DHT22;27720;51.992;5.890;2023-04-24T10:11:01;10.90;99.90
41557;DHT22;27720;51.992;5.890;2023-04-24T10:13:28;11.00;99.90
41557;DHT22;27720;51.992;5.890;2023-04-24T10:15:54;11.00;99.90
41557;DHT22;27720;51.992;5.890;2023-04-24T10:18:21;11.10;99.90
41557;DHT22;27720;51.992;5.890;2023-04-24T10:20:47;11.20;99.90
41557;DHT22;27720;51.992;5.890;2023-04-24T10:23:13;11.30;99.90
41557;DHT22;27720;51.992;5.890;2023-04-24T10:25:39;11.50;99.90
41557;DHT22;27720;51.992;5.890;2023-04-24T10:28:05;11.70;99.90
41557;DHT22;27720;51.992;5.890;2023-04-24T10:30:34;11.90;99.90
41557;DHT22;27720;51.992;5.890;2023-04-24T10:33:04;12.20;99.90
41557;DHT22;27720;51.992;5.890;2023-04-24T10:35:32;12.30;99.90
41557;DHT22;27720;51.992;5.890;2023-04-24T10:38:45;12.30;99.90
41557;DHT22;27720;51.992;5.890;2023-04-24T10:40:57;12.30;99.90
41557;DHT22;27720;51.992;5.890;2023-04-24T10:43:33;12.20;99.90
41557;DHT22;27720;51.992;5.890;2023-04-24T10:46:03;12.20;99.90
41557;DHT22;27720;51.992;5.890;2023-04-24T10:48:30;12.10;99.90
41557;DHT22;27720;51.992;5.890;2023-04-24T10:50:56;12.00;99.90
41557;DHT22;27720;51.992;5.890;2023-04-24T10:53:23;12.00;99.90
41557;DHT22;27720;51.992;5.890;2023-04-24T10:56:08;11.90;99.90
41557;DHT22;27720;51.992;5.890;2023-04-24T10:58:43;12.00;99.90
41557;DHT22;27720;51.992;5.890;2023-04-24T11:01:26;12.00;99.90
41557;DHT22;27720;51.992;5.890;2023-04-24T11:04:00;12.00;99.90
41557;DHT22;27720;51.992;5.890;2023-04-24T11:06:35;12.00;99.90
41557;DHT22;27720;51.992;5.890;2023-04-24T11:09:06;12.10;99.90
41557;DHT22;27720;51.992;5.890;2023-04-24T11:11:34;12.10;99.90
41557;DHT22;27720;51.992;5.890;2023-04-24T11:14:02;12.00;99.90
41557;DHT22;27720;51.992;5.890;2023-04-24T11:21:43;11.60;99.90
41557;DHT22;27720;51.992;5.890;2023-04-24T11:27:11;11.80;99.90
41557;DHT22;27720;51.992;5.890;2023-04-24T11:29:40;11.90;99.90
41557;DHT22;27720;51.992;5.890;2023-04-24T11:37:41;11.90;99.90
41557;DHT22;27720;51.992;5.890;2023-04-24T11:40:09;11.90;99.90
41557;DHT22;27720;51.992;5.890;2023-04-24T11:42:41;11.90;99.90
41557;DHT22;27720;51.992;5.890;2023-04-24T11:47:40;12.10;99.90
41557;DHT22;27720;51.992;5.890;2023-04-24T11:50:11;12.10;99.90
41557;DHT22;27720;51.992;5.890;2023-04-24T11:52:42;12.10;99.90
41557;DHT22;27720;51.992;5.890;2023-04-24T11:55:24;12.00;99.90
41557;DHT22;27720;51.992;5.890;2023-04-24T11:57:58;12.10;99.90
41557;DHT22;27720;51.992;5.890;2023-04-24T12:00:32;12.00;99.90
41557;DHT22;27720;51.992;5.890;2023-04-24T12:03:05;11.90;99.90
41557;DHT22;27720;51.992;5.890;2023-04-24T12:05:31;11.80;99.90
41557;DHT22;27720;51.992;5.890;2023-04-24T12:07:57;11.70;99.90
41557;DHT22;27720;51.992;5.890;2023-04-24T12:10:24;11.70;99.90
41557;DHT22;27720;51.992;5.890;2023-04-24T12:12:51;11.60;99.90
41557;DHT22;27720;51.992;5.890;2023-04-24T12:15:21;11.50;99.90
41557;DHT22;27720;51.992;5.890;2023-04-24T12:17:47;11.40;99.90
41557;DHT22;27720;51.992;5.890;2023-04-24T12:20:14;11.50;99.90
41557;DHT22;27720;51.992;5.890;2023-04-24T12:22:46;11.60;99.90
41557;DHT22;27720;51.992;5.890;2023-04-24T12:25:13;11.70;99.90
41557;DHT22;27720;51.992;5.890;2023-04-24T12:27:39;11.80;99.90
41557;DHT22;27720;51.992;5.890;2023-04-24T12:30:09;11.90;99.90
41557;DHT22;27720;51.992;5.890;2023-04-24T12:32:35;11.90;99.90
41557;DHT22;27720;51.992;5.890;2023-04-24T12:35:06;12.00;99.90
41557;DHT22;27720;51.992;5.890;2023-04-24T12:37:33;12.10;99.90
41557;DHT22;27720;51.992;5.890;2023-04-24T12:40:09;12.20;99.90
41557;DHT22;27720;51.992;5.890;2023-04-24T12:42:48;12.30;99.90
41557;DHT22;27720;51.992;5.890;2023-04-24T12:45:18;12.40;99.90
41557;DHT22;27720;51.992;5.890;2023-04-24T12:47:45;12.40;99.90
41557;DHT22;27720;51.992;5.890;2023-04-24T12:50:13;12.40;99.90
41557;DHT22;27720;51.992;5.890;2023-04-24T12:52:40;12.40;99.90
41557;DHT22;27720;51.992;5.890;2023-04-24T12:55:06;12.40;99.90
41557;DHT22;27720;51.992;5.890;2023-04-24T12:57:42;12.40;99.90
41557;DHT22;27720;51.992;5.890;2023-04-24T13:00:08;12.40;99.90
41557;DHT22;27720;51.992;5.890;2023-04-24T13:02:35;12.50;99.90
41557;DHT22;27720;51.992;5.890;2023-04-24T13:05:01;12.60;99.90
41557;DHT22;27720;51.992;5.890;2023-04-24T13:07:28;12.60;99.90
41557;DHT22;27720;51.992;5.890;2023-04-24T13:09:55;12.70;99.90
41557;DHT22;27720;51.992;5.890;2023-04-24T13:12:21;12.70;99.90
41557;DHT22;27720;51.992;5.890;2023-04-24T13:14:49;12.70;99.90
41557;DHT22;27720;51.992;5.890;2023-04-24T13:17:15;12.80;99.90
41557;DHT22;27720;51.992;5.890;2023-04-24T13:19:42;12.80;99.90
41557;DHT22;27720;51.992;5.890;2023-04-24T13:22:10;12.80;99.90
41557;DHT22;27720;51.992;5.890;2023-04-24T13:24:37;12.80;99.90
41557;DHT22;27720;51.992;5.890;2023-04-24T13:27:03;12.80;99.90
41557;DHT22;27720;51.992;5.890;2023-04-24T13:29:29;12.60;99.90
41557;DHT22;27720;51.992;5.890;2023-04-24T13:31:55;12.50;99.90
41557;DHT22;27720;51.992;5.890;2023-04-24T13:34:25;12.50;99.90
41557;DHT22;27720;51.992;5.890;2023-04-24T13:36:53;12.50;99.90
41557;DHT22;27720;51.992;5.890;2023-04-24T13:39:19;12.40;99.90
41557;DHT22;27720;51.992;5.890;2023-04-24T13:41:45;12.40;99.90
41557;DHT22;27720;51.992;5.890;2023-04-24T13:44:14;12.40;99.90
41557;DHT22;27720;51.992;5.890;2023-04-24T13:46:40;12.30;99.90
41557;DHT22;27720;51.992;5.890;2023-04-24T13:49:05;12.30;99.90
41557;DHT22;27720;51.992;5.890;2023-04-24T13:51:32;12.30;99.90
41557;DHT22;27720;51.992;5.890;2023-04-24T13:53:58;12.30;99.90
41557;DHT22;27720;51.992;5.890;2023-04-24T13:56:25;12.30;99.90
41557;DHT22;27720;51.992;5.890;2023-04-24T13:58:51;12.20;99.90
41557;DHT22;27720;51.992;5.890;2023-04-24T14:01:17;12.10;99.90
41557;DHT22;27720;51.992;5.890;2023-04-24T14:03:43;12.20;99.90
41557;DHT22;27720;51.992;5.890;2023-04-24T14:06:09;12.40;99.90
41557;DHT22;27720;51.992;5.890;2023-04-24T14:08:34;12.60;99.90
41557;DHT22;27720;51.992;5.890;2023-04-24T14:11:00;12.80;99.90
41557;DHT22;27720;51.992;5.890;2023-04-24T14:13:26;13.10;99.90
41557;DHT22;27720;51.992;5.890;2023-04-24T14:15:53;13.30;99.90
41557;DHT22;27720;51.992;5.890;2023-04-24T14:18:18;13.40;99.90
41557;DHT22;27720;51.992;5.890;2023-04-24T14:20:57;13.40;99.30
41557;DHT22;27720;51.992;5.890;2023-04-24T14:24:09;13.30;97.20
41557;DHT22;27720;51.992;5.890;2023-04-24T14:26:35;13.40;97.30
41557;DHT22;27720;51.992;5.890;2023-04-24T14:29:00;13.60;96.40
41557;DHT22;27720;51.992;5.890;2023-04-24T14:31:29;13.90;95.60
41557;DHT22;27720;51.992;5.890;2023-04-24T14:33:55;14.30;95.60
41557;DHT22;27720;51.992;5.890;2023-04-24T14:36:20;14.40;95.90
41557;DHT22;27720;51.992;5.890;2023-04-24T14:38:46;14.40;94.20
41557;DHT22;27720;51.992;5.890;2023-04-24T14:41:12;14.20;93.40
41557;DHT22;27720;51.992;5.890;2023-04-24T14:43:38;13.90;92.70
41557;DHT22;27720;51.992;5.890;2023-04-24T14:46:03;13.70;93.00
41557;DHT22;27720;51.992;5.890;2023-04-24T14:48:30;13.60;93.20
41557;DHT22;27720;51.992;5.890;2023-04-24T14:50:56;13.50;93.20
41557;DHT22;27720;51.992;5.890;2023-04-24T14:53:22;13.40;93.50
41557;DHT22;27720;51.992;5.890;2023-04-24T14:55:48;13.30;93.60
41557;DHT22;27720;51.992;5.890;2023-04-24T14:58:14;13.40;93.50
41557;DHT22;27720;51.992;5.890;2023-04-24T15:00:40;13.30;93.00
41557;DHT22;27720;51.992;5.890;2023-04-24T15:03:06;13.30;92.80
41557;DHT22;27720;51.992;5.890;2023-04-24T15:05:32;13.20;92.50
41557;DHT22;27720;51.992;5.890;2023-04-24T15:07:58;13.20;91.90
41557;DHT22;27720;51.992;5.890;2023-04-24T15:10:24;13.10;92.50
41557;DHT22;27720;51.992;5.890;2023-04-24T15:12:53;13.20;92.00
41557;DHT22;27720;51.992;5.890;2023-04-24T15:15:20;13.10;92.10
41557;DHT22;27720;51.992;5.890;2023-04-24T15:17:46;13.10;92.00
41557;DHT22;27720;51.992;5.890;2023-04-24T15:20:11;13.10;92.50
41557;DHT22;27720;51.992;5.890;2023-04-24T15:22:37;13.10;92.80
41557;DHT22;27720;51.992;5.890;2023-04-24T15:25:03;13.20;93.00
41557;DHT22;27720;51.992;5.890;2023-04-24T15:27:41;13.30;91.70
41557;DHT22;27720;51.992;5.890;2023-04-24T15:30:07;13.20;91.20
41557;DHT22;27720;51.992;5.890;2023-04-24T15:32:33;13.10;91.00
41557;DHT22;27720;51.992;5.890;2023-04-24T15:34:59;13.10;91.00
41557;DHT22;27720;51.992;5.890;2023-04-24T15:37:24;13.00;90.90
41557;DHT22;27720;51.992;5.890;2023-04-24T15:39:50;12.90;90.50
41557;DHT22;27720;51.992;5.890;2023-04-24T15:42:16;13.00;90.70
41557;DHT22;27720;51.992;5.890;2023-04-24T15:44:41;13.00;90.40
41557;DHT22;27720;51.992;5.890;2023-04-24T15:47:07;13.00;90.70
41557;DHT22;27720;51.992;5.890;2023-04-24T15:49:33;13.10;90.80